sensor_id;sensor_type;location;lat;lon;timestamp;pressure;altitude;pressure_sealevel;temperature;humidity
49341;BME280;35209;51.050;13.678;2023-06-14T00:03:24;99964.28;;;14.20;64.15
49341;BME280;35209;51.050;13.678;2023-06-14T00:08:27;99960.00;;;13.98;65.37
49341;BME280;35209;51.050;13.678;2023-06-14T00:13:29;99958.16;;;14.00;65.80
49341;BME280;35209;51.050;13.678;2023-06-14T00:18:31;99956.72;;;13.74;66.84
49341;BME280;35209;51.050;13.678;2023-06-14T00:23:33;99949.56;;;13.76;67.28
49341;BME280;35209;51.050;13.678;2023-06-14T00:28:34;99939.72;;;13.61;68.13
49341;BME280;35209;51.050;13.678;2023-06-14T00:33:36;99945.44;;;13.52;68.82
49341;BME280;35209;51.050;13.678;2023-06-14T00:38:39;99952.69;;;13.47;68.69
49341;BME280;35209;51.050;13.678;2023-06-14T00:43:43;99948.53;;;13.41;69.05
49341;BME280;35209;51.050;13.678;2023-06-14T00:48:44;99948.38;;;13.25;70.44
49341;BME280;35209;51.050;13.678;2023-06-14T00:53:47;99952.34;;;13.13;71.92
49341;BME280;35209;51.050;13.678;2023-06-14T00:58:51;99952.09;;;12.99;72.31
49341;BME280;35209;51.050;13.678;2023-06-14T01:03:53;99936.94;;;13.04;73.14
49341;BME280;35209;51.050;13.678;2023-06-14T01:09:19;99946.63;;;13.04;72.40
49341;BME280;35209;51.050;13.678;2023-06-14T01:14:27;99941.81;;;13.13;73.48
49341;BME280;35209;51.050;13.678;2023-06-14T01:19:29;99944.72;;;12.87;74.76
49341;BME280;35209;51.050;13.678;2023-06-14T01:24:33;99935.69;;;12.93;74.24
49341;BME280;35209;51.050;13.678;2023-06-14T01:29:36;99936.22;;;12.80;75.27
49341;BME280;35209;51.050;13.678;2023-06-14T01:34:38;99932.97;;;12.74;75.73
49341;BME280;35209;51.050;13.678;2023-06-14T01:39:42;99932.38;;;12.67;76.24
49341;BME280;35209;51.050;13.678;2023-06-14T01:44:45;99926.03;;;12.51;77.57
49341;BME280;35209;51.050;13.678;2023-06-14T01:49:48;99921.41;;;12.56;77.33
49341;BME280;35209;51.050;13.678;2023-06-14T01:54:50;99922.53;;;12.50;77.65
49341;BME280;35209;51.050;13.678;2023-06-14T01:59:52;99926.84;;;12.31;78.67
49341;BME280;35209;51.050;13.678;2023-06-14T02:04:54;99932.16;;;12.29;79.41
49341;BME280;35209;51.050;13.678;2023-06-14T02:09:59;99933.38;;;12.21;79.46
49341;BME280;35209;51.050;13.678;2023-06-14T02:15:01;99935.84;;;12.25;79.67
49341;BME280;35209;51.050;13.678;2023-06-14T02:20:03;99941.94;;;12.27;79.21
49341;BME280;35209;51.050;13.678;2023-06-14T02:25:07;99940.72;;;12.12;80.66
49341;BME280;35209;51.050;13.678;2023-06-14T02:30:09;99947.38;;;12.23;80.29
49341;BME280;35209;51.050;13.678;2023-06-14T02:35:11;99946.75;;;12.38;78.70
49341;BME280;35209;51.050;13.678;2023-06-14T02:40:13;99953.50;;;12.45;78.76
49341;BME280;35209;51.050;13.678;2023-06-14T02:45:15;99953.13;;;12.10;80.74
49341;BME280;35209;51.050;13.678;2023-06-14T02:50:17;99960.47;;;12.02;82.00
49341;BME280;35209;51.050;13.678;2023-06-14T02:55:19;99957.16;;;11.97;81.85
49341;BME280;35209;51.050;13.678;2023-06-14T03:00:21;99953.09;;;11.89;82.87
49341;BME280;35209;51.050;13.678;2023-06-14T03:05:22;99959.72;;;11.99;82.27
49341;BME280;35209;51.050;13.678;2023-06-14T03:10:25;99951.53;;;12.06;81.95
49341;BME280;35209;51.050;13.678;2023-06-14T03:15:32;99956.97;;;11.78;84.06
49341;BME280;35209;51.050;13.678;2023-06-14T03:20:35;99961.34;;;11.56;86.05
49341;BME280;35209;51.050;13.678;2023-06-14T03:25:37;99964.47;;;11.66;86.04
49341;BME280;35209;51.050;13.678;2023-06-14T03:30:40;99969.94;;;11.59;86.11
49341;BME280;35209;51.050;13.678;2023-06-14T03:35:43;99978.16;;;11.75;85.61
49341;BME280;35209;51.050;13.678;2023-06-14T03:40:45;99970.31;;;11.74;84.83
49341;BME280;35209;51.050;13.678;2023-06-14T03:45:47;99986.28;;;11.69;85.30
49341;BME280;35209;51.050;13.678;2023-06-14T03:50:49;100002.25;;;11.65;85.72
49341;BME280;35209;51.050;13.678;2023-06-14T03:55:51;99996.81;;;11.69;85.38
49341;BME280;35209;51.050;13.678;2023-06-14T04:01:03;100005.00;;;11.86;84.60
49341;BME280;35209;51.050;13.678;2023-06-14T04:06:06;100017.00;;;11.94;84.52
49341;BME280;35209;51.050;13.678;2023-06-14T04:11:08;100012.38;;;11.75;85.12
49341;BME280;35209;51.050;13.678;2023-06-14T04:16:10;100025.31;;;11.83;85.53
49341;BME280;35209;51.050;13.678;2023-06-14T04:21:12;100020.56;;;11.93;85.60
49341;BME280;35209;51.050;13.678;2023-06-14T04:26:13;100022.63;;;11.84;85.62
49341;BME280;35209;51.050;13.678;2023-06-14T04:31:17;100019.69;;;11.92;85.33
49341;BME280;35209;51.050;13.678;2023-06-14T04:36:20;100005.38;;;12.67;80.81
49341;BME280;35209;51.050;13.678;2023-06-14T04:41:23;100014.34;;;12.39;83.05
49341;BME280;35209;51.050;13.678;2023-06-14T04:46:34;100023.16;;;12.16;83.97
49341;BME280;35209;51.050;13.678;2023-06-14T04:51:51;100045.38;;;12.32;83.98
49341;BME280;35209;51.050;13.678;2023-06-14T04:57:01;100043.81;;;12.72;80.94
49341;BME280;35209;51.050;13.678;2023-06-14T05:02:04;100044.19;;;13.05;78.97
49341;BME280;35209;51.050;13.678;2023-06-14T05:07:07;100045.88;;;12.86;78.41
49341;BME280;35209;51.050;13.678;2023-06-14T05:12:10;100040.22;;;12.95;77.49
49341;BME280;35209;51.050;13.678;2023-06-14T05:17:12;100050.56;;;13.62;74.33
49341;BME280;35209;51.050;13.678;2023-06-14T05:22:14;100053.75;;;13.71;73.87
49341;BME280;35209;51.050;13.678;2023-06-14T05:27:16;100060.59;;;14.14;72.27
49341;BME280;35209;51.050;13.678;2023-06-14T05:32:18;100055.16;;;14.36;70.97
49341;BME280;35209;51.050;13.678;2023-06-14T05:37:21;100062.88;;;14.59;70.26
49341;BME280;35209;51.050;13.678;2023-06-14T05:42:22;100063.22;;;15.07;67.87
49341;BME280;35209;51.050;13.678;2023-06-14T05:47:24;100062.88;;;14.59;68.60
49341;BME280;35209;51.050;13.678;2023-06-14T05:52:27;100070.19;;;14.35;69.35
49341;BME280;35209;51.050;13.678;2023-06-14T05:57:29;100076.88;;;14.43;70.05
49341;BME280;35209;51.050;13.678;2023-06-14T06:02:31;100074.19;;;14.44;70.71
49341;BME280;35209;51.050;13.678;2023-06-14T06:07:33;100065.66;;;14.56;69.57
49341;BME280;35209;51.050;13.678;2023-06-14T06:12:38;100070.50;;;15.73;65.67
49341;BME280;35209;51.050;13.678;2023-06-14T06:17:40;100076.72;;;16.05;65.48
49341;BME280;35209;51.050;13.678;2023-06-14T06:22:58;100087.97;;;16.42;62.89
49341;BME280;35209;51.050;13.678;2023-06-14T06:28:00;100095.03;;;16.90;60.15
49341;BME280;35209;51.050;13.678;2023-06-14T06:33:02;100102.03;;;17.07;59.46
49341;BME280;35209;51.050;13.678;2023-06-14T06:38:04;100107.66;;;17.32;57.99
49341;BME280;35209;51.050;13.678;2023-06-14T06:43:06;100094.63;;;17.58;57.67
49341;BME280;35209;51.050;13.678;2023-06-14T06:48:15;100103.44;;;18.31;55.46
49341;BME280;35209;51.050;13.678;2023-06-14T06:53:17;100103.53;;;18.73;52.89
49341;BME280;35209;51.050;13.678;2023-06-14T06:58:31;100097.78;;;18.79;54.05
49341;BME280;35209;51.050;13.678;2023-06-14T07:03:32;100099.19;;;18.84;54.31
49341;BME280;35209;51.050;13.678;2023-06-14T07:08:34;100086.13;;;19.74;50.90
49341;BME280;35209;51.050;13.678;2023-06-14T07:13:37;100098.03;;;19.55;49.12
49341;BME280;35209;51.050;13.678;2023-06-14T07:18:39;100106.00;;;19.42;51.15
49341;BME280;35209;51.050;13.678;2023-06-14T07:23:40;100105.63;;;18.95;52.39
49341;BME280;35209;51.050;13.678;2023-06-14T07:28:42;100095.72;;;19.63;49.55
49341;BME280;35209;51.050;13.678;2023-06-14T07:33:46;100084.84;;;19.92;49.12
49341;BME280;35209;51.050;13.678;2023-06-14T07:38:48;100101.63;;;19.94;49.00
49341;BME280;35209;51.050;13.678;2023-06-14T07:43:50;100103.63;;;20.29;47.92
49341;BME280;35209;51.050;13.678;2023-06-14T07:48:52;100101.16;;;20.26;48.95
49341;BME280;35209;51.050;13.678;2023-06-14T07:53:54;100098.50;;;21.12;45.61
49341;BME280;35209;51.050;13.678;2023-06-14T07:58:56;100105.22;;;21.29;45.29
49341;BME280;35209;51.050;13.678;2023-06-14T08:03:58;100104.63;;;21.49;43.87
49341;BME280;35209;51.050;13.678;2023-06-14T08:08:59;100108.06;;;21.03;42.66
49341;BME280;35209;51.050;13.678;2023-06-14T08:14:02;100107.63;;;20.73;42.18
49341;BME280;35209;51.050;13.678;2023-06-14T08:19:04;100113.25;;;20.81;42.22
49341;BME280;35209;51.050;13.678;2023-06-14T08:24:06;100107.38;;;21.36;41.62
49341;BME280;35209;51.050;13.678;2023-06-14T08:29:08;100110.31;;;21.21;42.55
49341;BME280;35209;51.050;13.678;2023-06-14T08:34:10;100116.91;;;21.04;41.70
49341;BME280;35209;51.050;13.678;2023-06-14T08:39:11;100107.88;;;20.57;41.69
49341;BME280;35209;51.050;13.678;2023-06-14T08:44:16;100102.00;;;20.52;41.92
49341;BME280;35209;51.050;13.678;2023-06-14T08:49:18;100110.22;;;20.61;41.25
49341;BME280;35209;51.050;13.678;2023-06-14T08:54:20;100100.94;;;20.91;40.39
49341;BME280;35209;51.050;13.678;2023-06-14T08:59:24;100099.22;;;21.14;39.16
49341;BME280;35209;51.050;13.678;2023-06-14T09:04:27;100120.75;;;21.24;39.22
49341;BME280;35209;51.050;13.678;2023-06-14T09:09:31;100119.00;;;21.59;39.59
49341;BME280;35209;51.050;13.678;2023-06-14T09:14:33;100110.53;;;21.77;37.50
49341;BME280;35209;51.050;13.678;2023-06-14T09:19:39;100120.00;;;22.38;38.60
49341;BME280;35209;51.050;13.678;2023-06-14T09:24:42;100119.00;;;22.39;37.16
49341;BME280;35209;51.050;13.678;2023-06-14T09:29:44;100112.06;;;22.59;38.43
49341;BME280;35209;51.050;13.678;2023-06-14T09:34:49;100114.25;;;22.21;38.32
49341;BME280;35209;51.050;13.678;2023-06-14T09:39:51;100115.66;;;21.21;38.82
49341;BME280;35209;51.050;13.678;2023-06-14T09:44:54;100103.56;;;21.63;40.27
49341;BME280;35209;51.050;13.678;2023-06-14T09:49:56;100111.53;;;21.98;38.95
49341;BME280;35209;51.050;13.678;2023-06-14T09:54:59;100102.03;;;23.27;37.51
49341;BME280;35209;51.050;13.678;2023-06-14T10:00:01;100099.56;;;23.67;36.99
49341;BME280;35209;51.050;13.678;2023-06-14T10:05:15;100092.94;;;23.51;35.92
49341;BME280;35209;51.050;13.678;2023-06-14T10:10:17;100091.53;;;24.29;35.56
49341;BME280;35209;51.050;13.678;2023-06-14T10:26:27;100100.34;;;21.93;38.79
49341;BME280;35209;51.050;13.678;2023-06-14T10:31:55;100096.59;;;22.07;40.08
49341;BME280;35209;51.050;13.678;2023-06-14T10:37:02;100101.78;;;21.86;39.69
49341;BME280;35209;51.050;13.678;2023-06-14T10:42:05;100105.81;;;22.70;38.78
49341;BME280;35209;51.050;13.678;2023-06-14T10:47:24;100095.88;;;23.15;37.74
49341;BME280;35209;51.050;13.678;2023-06-14T10:52:28;100095.88;;;23.15;38.23
49341;BME280;35209;51.050;13.678;2023-06-14T10:57:30;100090.84;;;21.89;41.15
49341;BME280;35209;51.050;13.678;2023-06-14T11:13:24;100082.34;;;21.84;40.66
49341;BME280;35209;51.050;13.678;2023-06-14T11:18:28;100071.41;;;21.40;41.25
49341;BME280;35209;51.050;13.678;2023-06-14T11:23:30;100072.78;;;21.22;42.32
49341;BME280;35209;51.050;13.678;2023-06-14T11:28:41;100074.47;;;20.51;44.00
49341;BME280;35209;51.050;13.678;2023-06-14T11:33:49;100071.56;;;20.54;44.36
49341;BME280;35209;51.050;13.678;2023-06-14T11:38:58;100076.53;;;20.96;43.08
49341;BME280;35209;51.050;13.678;2023-06-14T11:44:01;100070.63;;;20.79;44.75
49341;BME280;35209;51.050;13.678;2023-06-14T11:49:04;100070.75;;;20.28;47.00
49341;BME280;35209;51.050;13.678;2023-06-14T11:54:08;100075.91;;;20.06;47.24
49341;BME280;35209;51.050;13.678;2023-06-14T11:59:13;100071.63;;;20.03;48.65
49341;BME280;35209;51.050;13.678;2023-06-14T12:04:23;100073.75;;;20.11;47.83
49341;BME280;35209;51.050;13.678;2023-06-14T12:09:25;100068.81;;;20.17;48.79
49341;BME280;35209;51.050;13.678;2023-06-14T12:14:31;100072.44;;;20.29;47.79
49341;BME280;35209;51.050;13.678;2023-06-14T12:19:33;100077.28;;;19.99;48.29
49341;BME280;35209;51.050;13.678;2023-06-14T12:24:43;100071.16;;;20.35;47.82
49341;BME280;35209;51.050;13.678;2023-06-14T12:29:44;100069.97;;;20.76;48.63
49341;BME280;35209;51.050;13.678;2023-06-14T12:34:46;100070.16;;;21.09;47.25
49341;BME280;35209;51.050;13.678;2023-06-14T12:39:48;100070.50;;;20.31;48.04
49341;BME280;35209;51.050;13.678;2023-06-14T12:44:52;100069.66;;;20.31;48.64
49341;BME280;35209;51.050;13.678;2023-06-14T12:49:54;100063.00;;;20.86;47.88
49341;BME280;35209;51.050;13.678;2023-06-14T12:54:55;100058.06;;;21.16;46.61
49341;BME280;35209;51.050;13.678;2023-06-14T12:59:59;100062.84;;;21.71;46.13
49341;BME280;35209;51.050;13.678;2023-06-14T13:05:01;100061.16;;;21.81;45.98
49341;BME280;35209;51.050;13.678;2023-06-14T13:10:05;100053.66;;;22.42;43.67
49341;BME280;35209;51.050;13.678;2023-06-14T13:15:07;100039.72;;;22.59;43.10
49341;BME280;35209;51.050;13.678;2023-06-14T13:20:09;100036.72;;;22.96;43.55
49341;BME280;35209;51.050;13.678;2023-06-14T13:25:11;100033.81;;;23.20;42.41
49341;BME280;35209;51.050;13.678;2023-06-14T13:30:13;100043.50;;;22.57;41.97
49341;BME280;35209;51.050;13.678;2023-06-14T13:35:16;100036.16;;;21.47;45.59
49341;BME280;35209;51.050;13.678;2023-06-14T13:40:18;100037.72;;;20.55;48.09
49341;BME280;35209;51.050;13.678;2023-06-14T13:45:21;100037.63;;;20.31;48.72
49341;BME280;35209;51.050;13.678;2023-06-14T13:50:40;100031.19;;;21.18;46.61
49341;BME280;35209;51.050;13.678;2023-06-14T13:55:59;100033.31;;;21.95;42.72
49341;BME280;35209;51.050;13.678;2023-06-14T14:01:19;100037.44;;;22.55;42.03
49341;BME280;35209;51.050;13.678;2023-06-14T14:06:38;100038.19;;;22.89;41.42
49341;BME280;35209;51.050;13.678;2023-06-14T14:11:58;100036.13;;;22.81;41.61
49341;BME280;35209;51.050;13.678;2023-06-14T14:17:17;100025.41;;;22.38;43.05
49341;BME280;35209;51.050;13.678;2023-06-14T14:22:37;100023.69;;;21.81;44.12
49341;BME280;35209;51.050;13.678;2023-06-14T14:27:56;100028.81;;;21.95;42.36
49341;BME280;35209;51.050;13.678;2023-06-14T14:33:16;100023.72;;;22.26;41.06
49341;BME280;35209;51.050;13.678;2023-06-14T14:38:18;100017.16;;;22.73;39.52
49341;BME280;35209;51.050;13.678;2023-06-14T14:43:20;100020.78;;;23.57;39.64
49341;BME280;35209;51.050;13.678;2023-06-14T14:48:22;100022.13;;;23.21;38.02
49341;BME280;35209;51.050;13.678;2023-06-14T14:53:24;100008.09;;;22.42;40.15
49341;BME280;35209;51.050;13.678;2023-06-14T14:58:25;100011.16;;;22.26;40.55
49341;BME280;35209;51.050;13.678;2023-06-14T15:03:27;100016.34;;;22.61;40.60
49341;BME280;35209;51.050;13.678;2023-06-14T15:08:29;99999.06;;;23.19;39.83
49341;BME280;35209;51.050;13.678;2023-06-14T15:13:32;99993.66;;;23.51;38.71
49341;BME280;35209;51.050;13.678;2023-06-14T15:18:34;100007.69;;;23.85;37.33
49341;BME280;35209;51.050;13.678;2023-06-14T15:23:35;100006.38;;;23.58;35.32
49341;BME280;35209;51.050;13.678;2023-06-14T15:28:37;99999.75;;;24.14;34.47
49341;BME280;35209;51.050;13.678;2023-06-14T15:33:39;99998.72;;;23.65;36.07
49341;BME280;35209;51.050;13.678;2023-06-14T15:38:41;99999.75;;;25.32;33.93
49341;BME280;35209;51.050;13.678;2023-06-14T15:43:44;100003.91;;;24.28;34.47
49341;BME280;35209;51.050;13.678;2023-06-14T15:48:45;100008.28;;;22.73;36.67
49341;BME280;35209;51.050;13.678;2023-06-14T15:53:47;100017.63;;;22.24;38.73
49341;BME280;35209;51.050;13.678;2023-06-14T15:58:49;99996.91;;;22.91;38.79
49341;BME280;35209;51.050;13.678;2023-06-14T16:03:53;100002.44;;;23.11;38.35
49341;BME280;35209;51.050;13.678;2023-06-14T16:08:55;99991.75;;;23.41;38.13
49341;BME280;35209;51.050;13.678;2023-06-14T16:13:57;100003.28;;;23.11;36.46
49341;BME280;35209;51.050;13.678;2023-06-14T16:18:59;99999.66;;;23.01;35.78
49341;BME280;35209;51.050;13.678;2023-06-14T16:24:01;99997.50;;;22.95;35.93
49341;BME280;35209;51.050;13.678;2023-06-14T16:29:03;99999.50;;;22.71;35.90
49341;BME280;35209;51.050;13.678;2023-06-14T16:34:04;99994.13;;;22.71;35.79
49341;BME280;35209;51.050;13.678;2023-06-14T16:39:10;99995.81;;;22.39;36.49
49341;BME280;35209;51.050;13.678;2023-06-14T16:44:13;99995.78;;;22.51;35.72
49341;BME280;35209;51.050;13.678;2023-06-14T16:49:15;99997.91;;;22.25;34.88
49341;BME280;35209;51.050;13.678;2023-06-14T16:54:17;100009.13;;;22.19;34.29
49341;BME280;35209;51.050;13.678;2023-06-14T16:59:19;100010.09;;;21.84;35.16
49341;BME280;35209;51.050;13.678;2023-06-14T17:04:22;100009.84;;;21.87;35.36
49341;BME280;35209;51.050;13.678;2023-06-14T17:09:23;100012.03;;;21.71;36.92
49341;BME280;35209;51.050;13.678;2023-06-14T17:14:25;100007.34;;;21.50;38.12
49341;BME280;35209;51.050;13.678;2023-06-14T17:19:27;100016.75;;;21.67;37.36
49341;BME280;35209;51.050;13.678;2023-06-14T17:24:28;100019.00;;;21.38;37.74
49341;BME280;35209;51.050;13.678;2023-06-14T17:29:30;100018.31;;;21.47;37.28
49341;BME280;35209;51.050;13.678;2023-06-14T17:34:32;100017.75;;;21.31;38.32
49341;BME280;35209;51.050;13.678;2023-06-14T17:39:34;100020.00;;;21.13;38.92
49341;BME280;35209;51.050;13.678;2023-06-14T17:44:37;100025.97;;;21.16;38.48
49341;BME280;35209;51.050;13.678;2023-06-14T17:49:39;100014.34;;;20.70;39.62
49341;BME280;35209;51.050;13.678;2023-06-14T17:54:41;100026.50;;;20.74;40.06
49341;BME280;35209;51.050;13.678;2023-06-14T17:59:43;100026.69;;;20.59;40.44
49341;BME280;35209;51.050;13.678;2023-06-14T18:04:44;100034.91;;;20.56;40.60
49341;BME280;35209;51.050;13.678;2023-06-14T18:09:46;100041.56;;;20.38;41.34
49341;BME280;35209;51.050;13.678;2023-06-14T18:14:48;100043.69;;;20.46;41.68
49341;BME280;35209;51.050;13.678;2023-06-14T18:19:50;100037.06;;;20.38;42.26
49341;BME280;35209;51.050;13.678;2023-06-14T18:24:52;100050.16;;;20.05;43.00
49341;BME280;35209;51.050;13.678;2023-06-14T18:29:53;100047.06;;;20.11;43.42
49341;BME280;35209;51.050;13.678;2023-06-14T18:34:55;100049.75;;;19.98;43.60
49341;BME280;35209;51.050;13.678;2023-06-14T18:39:57;100058.28;;;19.90;43.79
49341;BME280;35209;51.050;13.678;2023-06-14T18:44:59;100056.91;;;19.85;44.58
49341;BME280;35209;51.050;13.678;2023-06-14T18:50:01;100061.06;;;19.89;45.09
49341;BME280;35209;51.050;13.678;2023-06-14T18:55:04;100062.03;;;19.75;45.61
49341;BME280;35209;51.050;13.678;2023-06-14T19:00:06;100062.31;;;19.58;46.25
49341;BME280;35209;51.050;13.678;2023-06-14T19:05:08;100066.69;;;19.59;46.37
49341;BME280;35209;51.050;13.678;2023-06-14T19:10:10;100064.50;;;19.38;47.08
49341;BME280;35209;51.050;13.678;2023-06-14T19:15:12;100071.00;;;19.22;47.28
49341;BME280;35209;51.050;13.678;2023-06-14T19:20:14;100068.59;;;19.04;48.25
49341;BME280;35209;51.050;13.678;2023-06-14T19:25:16;100075.78;;;18.89;49.48
49341;BME280;35209;51.050;13.678;2023-06-14T19:30:18;100076.78;;;18.74;50.52
49341;BME280;35209;51.050;13.678;2023-06-14T19:35:20;100079.47;;;18.60;51.53
49341;BME280;35209;51.050;13.678;2023-06-14T19:40:23;100082.22;;;18.73;52.92
49341;BME280;35209;51.050;13.678;2023-06-14T19:45:25;100081.84;;;18.50;52.77
49341;BME280;35209;51.050;13.678;2023-06-14T19:50:27;100094.91;;;18.26;53.28
49341;BME280;35209;51.050;13.678;2023-06-14T19:55:28;100095.06;;;18.23;53.58
49341;BME280;35209;51.050;13.678;2023-06-14T20:00:30;100093.84;;;18.00;54.61
49341;BME280;35209;51.050;13.678;2023-06-14T20:05:34;100103.53;;;18.01;55.86
49341;BME280;35209;51.050;13.678;2023-06-14T20:10:36;100108.00;;;17.86;55.75
49341;BME280;35209;51.050;13.678;2023-06-14T20:15:38;100104.09;;;17.78;55.80
49341;BME280;35209;51.050;13.678;2023-06-14T20:20:40;100110.34;;;17.77;56.29
49341;BME280;35209;51.050;13.678;2023-06-14T20:25:45;100111.84;;;17.67;57.00
49341;BME280;35209;51.050;13.678;2023-06-14T20:30:52;100117.59;;;17.29;59.42
49341;BME280;35209;51.050;13.678;2023-06-14T20:35:54;100128.97;;;17.01;60.84
49341;BME280;35209;51.050;13.678;2023-06-14T20:40:56;100122.97;;;16.97;60.36
49341;BME280;35209;51.050;13.678;2023-06-14T20:46:00;100113.91;;;17.31;60.56
49341;BME280;35209;51.050;13.678;2023-06-14T20:51:02;100112.97;;;17.32;60.62
49341;BME280;35209;51.050;13.678;2023-06-14T20:56:04;100109.84;;;17.10;61.05
49341;BME280;35209;51.050;13.678;2023-06-14T21:01:07;100113.47;;;16.93;61.71
49341;BME280;35209;51.050;13.678;2023-06-14T21:06:10;100116.38;;;16.73;62.09
49341;BME280;35209;51.050;13.678;2023-06-14T21:11:11;100120.41;;;16.80;62.57
49341;BME280;35209;51.050;13.678;2023-06-14T21:16:13;100126.13;;;16.23;64.96
49341;BME280;35209;51.050;13.678;2023-06-14T21:21:15;100121.59;;;15.92;66.64
49341;BME280;35209;51.050;13.678;2023-06-14T21:26:17;100118.75;;;16.12;67.33
49341;BME280;35209;51.050;13.678;2023-06-14T21:31:18;100121.91;;;16.19;66.07
49341;BME280;35209;51.050;13.678;2023-06-14T21:36:21;100117.16;;;15.75;67.47
49341;BME280;35209;51.050;13.678;2023-06-14T21:41:23;100115.91;;;16.00;67.82
49341;BME280;35209;51.050;13.678;2023-06-14T21:46:24;100108.34;;;15.75;68.52
49341;BME280;35209;51.050;13.678;2023-06-14T21:51:26;100121.91;;;15.51;69.39
49341;BME280;35209;51.050;13.678;2023-06-14T21:56:28;100115.94;;;15.65;69.38
49341;BME280;35209;51.050;13.678;2023-06-14T22:01:30;100116.22;;;15.42;69.33
49341;BME280;35209;51.050;13.678;2023-06-14T22:06:32;100114.28;;;15.45;69.34
49341;BME280;35209;51.050;13.678;2023-06-14T22:11:33;100115.28;;;15.60;67.98
49341;BME280;35209;51.050;13.678;2023-06-14T22:16:36;100118.78;;;15.60;68.46
49341;BME280;35209;51.050;13.678;2023-06-14T22:21:38;100114.34;;;15.44;69.23
49341;BME280;35209;51.050;13.678;2023-06-14T22:26:42;100119.94;;;15.20;70.44
49341;BME280;35209;51.050;13.678;2023-06-14T22:31:51;100125.09;;;15.04;71.19
49341;BME280;35209;51.050;13.678;2023-06-14T22:36:53;100121.34;;;14.91;72.36
49341;BME280;35209;51.050;13.678;2023-06-14T22:41:55;100130.34;;;14.87;72.63
49341;BME280;35209;51.050;13.678;2023-06-14T22:46:57;100110.72;;;14.55;74.19
49341;BME280;35209;51.050;13.678;2023-06-14T22:52:01;100114.75;;;14.24;76.42
49341;BME280;35209;51.050;13.678;2023-06-14T22:57:06;100118.19;;;14.26;76.20
49341;BME280;35209;51.050;13.678;2023-06-14T23:02:09;100124.03;;;14.14;77.87
49341;BME280;35209;51.050;13.678;2023-06-14T23:07:13;100120.59;;;14.12;77.88
49341;BME280;35209;51.050;13.678;2023-06-14T23:12:16;100122.63;;;14.45;76.86
49341;BME280;35209;51.050;13.678;2023-06-14T23:17:18;100127.41;;;14.57;75.41
49341;BME280;35209;51.050;13.678;2023-06-14T23:22:20;100133.97;;;14.28;76.42
49341;BME280;35209;51.050;13.678;2023-06-14T23:27:23;100126.81;;;14.11;77.65
49341;BME280;35209;51.050;13.678;2023-06-14T23:32:25;100128.50;;;14.12;77.64
49341;BME280;35209;51.050;13.678;2023-06-14T23:37:30;100134.41;;;14.19;77.61
49341;BME280;35209;51.050;13.678;2023-06-14T23:42:32;100127.41;;;14.36;76.67
49341;BME280;35209;51.050;13.678;2023-06-14T23:47:35;100123.31;;;14.29;76.63
49341;BME280;35209;51.050;13.678;2023-06-14T23:52:37;100124.25;;;14.49;75.25
49341;BME280;35209;51.050;13.678;2023-06-14T23:57:39;100119.56;;;14.35;75.24
